| time (UTC) | temp F | wind direction | speed knots | gust knots | rain 1hr in | rain 24hr in | rain mn in | humidity % | barometer mb |
| 20260504050523 | 54 | 232 | 5.2 | 11.3 | 0.00 | 0.00 | 0.00 | 61 | 1007.6 |
| 20260504045523 | 52 | 239 | 4.3 | 10.4 | 0.00 | 0.00 | 0.00 | 65 | 1007.7 |
| 20260504045023 | 51 | 242 | 2.6 | 6.1 | 0.00 | 0.00 | 0.00 | 68 | 1007.6 |
| 20260504044539 | 50 | 229 | 1.7 | 4.3 | 0.00 | 0.00 | 0.00 | 72 | 1007.7 |
| 20260504044023 | 50 | 220 | 0.0 | 2.6 | 0.00 | 0.00 | 0.00 | 75 | 1007.7 |
| 20260504043531 | 49 | 0 | 0.0 | 0.0 | 0.00 | 0.00 | 0.00 | 77 | 1007.6 |
| 20260504043042 | 49 | 0 | 0.0 | 0.0 | 0.00 | 0.00 | 0.00 | 76 | 1007.7 |
| 20260504042523 | 49 | 0 | 0.0 | 0.0 | 0.00 | 0.00 | 0.00 | 78 | 1007.7 |
| 20260504042023 | 49 | 0 | 0.0 | 0.0 | 0.00 | 0.00 | 0.00 | 79 | 1007.7 |
| 20260504041541 | 48 | 0 | 0.0 | 0.0 | 0.00 | 0.00 | 0.00 | 79 | 1007.8 |
| 20260504041023 | 48 | 0 | 0.0 | 0.0 | 0.00 | 0.00 | 0.00 | 81 | 1007.8 |
| 20260504040523 | 48 | 0 | 0.0 | 0.0 | 0.00 | 0.00 | 0.00 | 82 | 1007.7 |
| 20260504040045 | 48 | 0 | 0.0 | 0.0 | 0.00 | 0.00 | 0.00 | 82 | 1007.8 |
| 20260504035528 | 48 | 0 | 0.0 | 0.0 | 0.00 | 0.00 | 0.00 | 83 | 1007.8 |
| 20260504035024 | 48 | 0 | 0.0 | 0.0 | 0.00 | 0.00 | 0.00 | 82 | 1007.7 |
| 20260504034553 | 48 | 0 | 0.0 | 0.0 | 0.00 | 0.00 | 0.00 | 82 | 1007.6 |
| 20260504034022 | 48 | 0 | 0.0 | 0.0 | 0.00 | 0.00 | 0.00 | 82 | 1007.8 |
| 20260504033522 | 48 | 0 | 0.0 | 0.0 | 0.00 | 0.00 | 0.00 | 82 | 1007.8 |
| 20260504033051 | 49 | 0 | 0.0 | 0.0 | 0.00 | 0.00 | 0.00 | 82 | 1007.8 |
| 20260504032524 | 49 | 0 | 0.0 | 0.0 | 0.00 | 0.00 | 0.00 | 82 | 1007.9 |
| 20260504032024 | 49 | 0 | 0.0 | 0.0 | 0.00 | 0.00 | 0.00 | 81 | 1008.0 |
| 20260504031556 | 49 | 0 | 0.0 | 0.0 | 0.00 | 0.00 | 0.00 | 80 | 1007.9 |
| 20260504031023 | 49 | 0 | 0.0 | 0.0 | 0.00 | 0.00 | 0.00 | 81 | 1008.1 |
| 20260504030523 | 49 | 0 | 0.0 | 0.0 | 0.00 | 0.00 | 0.00 | 79 | 1008.1 |
| 20260504030052 | 49 | 0 | 0.0 | 0.0 | 0.00 | 0.00 | 0.00 | 79 | 1008.1 |
| 20260504025524 | 49 | 0 | 0.0 | 0.0 | 0.00 | 0.00 | 0.00 | 79 | 1008.2 |
| 20260504025024 | 49 | 0 | 0.0 | 0.0 | 0.00 | 0.00 | 0.00 | 78 | 1008.2 |
| 20260504024542 | 49 | 0 | 0.0 | 0.0 | 0.00 | 0.00 | 0.00 | 78 | 1008.2 |
| 20260504024024 | 49 | 0 | 0.0 | 0.0 | 0.00 | 0.00 | 0.00 | 78 | 1008.3 |
| 20260504023524 | 49 | 0 | 0.0 | 0.0 | 0.00 | 0.00 | 0.00 | 77 | 1008.3 |
| 20260504023044 | 49 | 0 | 0.0 | 0.0 | 0.00 | 0.00 | 0.00 | 76 | 1008.4 |
| 20260504022525 | 50 | 0 | 0.0 | 0.0 | 0.00 | 0.00 | 0.00 | 77 | 1008.3 |
| 20260504022022 | 50 | 0 | 0.0 | 0.0 | 0.00 | 0.00 | 0.00 | 76 | 1008.6 |
| 20260504021543 | 50 | 0 | 0.0 | 0.0 | 0.00 | 0.00 | 0.00 | 76 | 1008.6 |
| 20260504021023 | 50 | 0 | 0.0 | 2.6 | 0.00 | 0.00 | 0.00 | 75 | 1008.5 |
| 20260504020525 | 50 | 0 | 0.0 | 3.5 | 0.00 | 0.00 | 0.00 | 75 | 1008.5 |
| 20260504020041 | 50 | 0 | 1.7 | 4.3 | 0.00 | 0.00 | 0.00 | 75 | 1008.5 |
| 20260504015523 | 50 | 196 | 2.6 | 4.3 | 0.00 | 0.00 | 0.00 | 76 | 1008.6 |
| 20260504015026 | 50 | 238 | 1.7 | 3.5 | 0.00 | 0.00 | 0.00 | 77 | 1008.6 |
| 20260504014539 | 50 | 0 | 0.0 | 0.0 | 0.00 | 0.00 | 0.00 | 77 | 1008.8 |
| 20260504014026 | 50 | 0 | 0.0 | 0.0 | 0.00 | 0.00 | 0.00 | 76 | 1008.8 |
| 20260504013524 | 50 | 0 | 0.0 | 0.0 | 0.00 | 0.00 | 0.00 | 76 | 1008.9 |
| 20260504013042 | 50 | 0 | 0.0 | 2.6 | 0.00 | 0.00 | 0.00 | 77 | 1009.0 |
| 20260504012629 | 50 | 0 | 0.0 | 5.2 | 0.00 | 0.00 | 0.00 | 77 | 1009.1 |
| 20260504012025 | 50 | 269 | 0.9 | 5.2 | 0.00 | 0.00 | 0.00 | 76 | 1009.0 |
| 20260504011545 | 50 | 270 | 2.6 | 7.8 | 0.00 | 0.00 | 0.00 | 76 | 1009.1 |
| 20260504011027 | 50 | 265 | 1.7 | 7.8 | 0.00 | 0.00 | 0.00 | 76 | 1008.9 |
| 20260504010523 | 50 | 257 | 2.6 | 7.8 | 0.00 | 0.00 | 0.00 | 76 | 1009.1 |
| 20260504010043 | 50 | 259 | 2.6 | 7.8 | 0.00 | 0.00 | 0.00 | 75 | 1009.1 |
| 20260504005523 | 51 | 285 | 4.3 | 7.8 | 0.00 | 0.00 | 0.00 | 74 | 1009.3 |
| 20260504005023 | 51 | 257 | 4.3 | 9.6 | 0.00 | 0.00 | 0.00 | 74 | 1009.5 |
| 20260504004541 | 51 | 243 | 4.3 | 11.3 | 0.00 | 0.00 | 0.00 | 72 | 1009.4 |
| 20260504004023 | 51 | 296 | 6.1 | 13.9 | 0.00 | 0.00 | 0.00 | 71 | 1009.4 |
| 20260504003523 | 52 | 241 | 6.1 | 13.9 | 0.00 | 0.00 | 0.00 | 70 | 1009.2 |
| 20260504003043 | 52 | 268 | 5.2 | 10.4 | 0.00 | 0.00 | 0.00 | 70 | 1009.2 |
| 20260504002527 | 52 | 288 | 5.2 | 12.2 | 0.00 | 0.00 | 0.00 | 69 | 1009.0 |
| 20260504002024 | 52 | 268 | 7.0 | 14.8 | 0.00 | 0.00 | 0.00 | 68 | 1008.9 |
| 20260504001538 | 52 | 257 | 7.0 | 21.7 | 0.00 | 0.00 | 0.00 | 68 | 1008.9 |
| 20260504001025 | 53 | 244 | 8.7 | 21.7 | 0.00 | 0.00 | 0.00 | 66 | 1008.9 |
| 20260504000522 | 53 | 288 | 10.4 | 21.7 | 0.00 | 0.00 | 0.00 | 64 | 1009.0 |
| 20260504000104 | 54 | 254 | 10.4 | 20.0 | 0.00 | 0.00 | 0.00 | 60 | 1008.9 |
| 20260503235524 | 55 | 254 | 7.8 | 20.0 | 0.00 | 0.00 | 0.00 | 56 | 1008.8 |
| 20260503235024 | 55 | 259 | 10.4 | 20.0 | 0.00 | 0.00 | 0.00 | 55 | 1008.6 |
| 20260503234543 | 55 | 315 | 8.7 | 16.5 | 0.00 | 0.00 | 0.00 | 54 | 1008.7 |
| 20260503234024 | 55 | 240 | 7.0 | 16.5 | 0.00 | 0.00 | 0.00 | 54 | 1008.5 |
| 20260503233525 | 55 | 270 | 7.0 | 22.6 | 0.00 | 0.00 | 0.00 | 54 | 1008.3 |
| 20260503233042 | 54 | 285 | 9.6 | 22.6 | 0.00 | 0.00 | 0.00 | 56 | 1008.2 |
| 20260503232525 | 51 | 257 | 6.1 | 13.0 | 0.00 | 0.00 | 0.00 | 60 | 1008.1 |
| 20260503232023 | 50 | 235 | 1.7 | 5.2 | 0.00 | 0.00 | 0.00 | 65 | 1008.2 |
| 20260503231541 | 50 | 0 | 0.0 | 0.0 | 0.00 | 0.00 | 0.00 | 65 | 1008.2 |
| 20260503231026 | 49 | 0 | 0.0 | 0.0 | 0.00 | 0.00 | 0.00 | 64 | 1008.1 |
| 20260503230525 | 49 | 0 | 0.0 | 0.0 | 0.00 | 0.00 | 0.00 | 63 | 1008.1 |
| 20260503230041 | 49 | 0 | 0.0 | 2.6 | 0.00 | 0.00 | 0.00 | 65 | 1008.1 |
| 20260503225523 | 49 | 0 | 0.0 | 2.6 | 0.00 | 0.00 | 0.00 | 64 | 1008.1 |
| 20260503225025 | 49 | 150 | 0.0 | 3.5 | 0.00 | 0.00 | 0.00 | 65 | 1008.1 |
| 20260503224536 | 49 | 0 | 1.7 | 3.5 | 0.00 | 0.00 | 0.00 | 64 | 1008.0 |
| 20260503224023 | 49 | 109 | 1.7 | 5.2 | 0.00 | 0.00 | 0.00 | 66 | 1008.2 |
| 20260503223523 | 49 | 104 | 1.7 | 5.2 | 0.00 | 0.00 | 0.00 | 67 | 1008.2 |
| 20260503223047 | 49 | 92 | 2.6 | 4.3 | 0.00 | 0.00 | 0.00 | 67 | 1008.6 |
| 20260503222526 | 49 | 78 | 1.7 | 4.3 | 0.00 | 0.00 | 0.00 | 65 | 1008.8 |
| 20260503222112 | 49 | 92 | 0.9 | 3.5 | 0.00 | 0.00 | 0.00 | 65 | 1008.8 |
| 20260503221542 | 49 | 65 | 1.7 | 3.5 | 0.00 | 0.00 | 0.00 | 66 | 1008.9 |
| 20260503221023 | 49 | 0 | 0.0 | 2.6 | 0.00 | 0.00 | 0.00 | 65 | 1009.2 |
| 20260503220523 | 49 | 0 | 0.0 | 3.5 | 0.00 | 0.00 | 0.00 | 66 | 1009.3 |
| 20260503220046 | 48 | 0 | 1.7 | 3.5 | 0.00 | 0.00 | 0.00 | 66 | 1009.1 |
| 20260503215523 | 48 | 46 | 2.6 | 3.5 | 0.00 | 0.00 | 0.00 | 66 | 1008.9 |
| 20260503215023 | 48 | 53 | 1.7 | 3.5 | 0.00 | 0.00 | 0.00 | 65 | 1008.9 |
| 20260503214541 | 48 | 80 | 1.7 | 3.5 | 0.00 | 0.00 | 0.00 | 64 | 1008.6 |
| 20260503214024 | 48 | 56 | 1.7 | 3.5 | 0.00 | 0.00 | 0.00 | 66 | 1008.6 |
| 20260503213524 | 48 | 28 | 1.7 | 4.3 | 0.00 | 0.00 | 0.00 | 66 | 1008.6 |
| 20260503213040 | 48 | 72 | 1.7 | 4.3 | 0.00 | 0.00 | 0.00 | 64 | 1008.4 |
| 20260503212522 | 49 | 61 | 2.6 | 4.3 | 0.00 | 0.00 | 0.00 | 64 | 1008.3 |
| 20260503212024 | 49 | 47 | 2.6 | 4.3 | 0.00 | 0.00 | 0.00 | 67 | 1008.2 |
| 20260503211540 | 49 | 49 | 2.6 | 4.3 | 0.00 | 0.00 | 0.00 | 64 | 1008.1 |
| 20260503211024 | 49 | 67 | 1.7 | 5.2 | 0.00 | 0.00 | 0.00 | 66 | 1008.3 |
| 20260503210523 | 48 | 54 | 1.7 | 5.2 | 0.00 | 0.00 | 0.00 | 65 | 1008.7 |
| 20260503210039 | 48 | 42 | 2.6 | 5.2 | 0.00 | 0.00 | 0.00 | 65 | 1008.7 |
| 20260503205524 | 48 | 71 | 2.6 | 5.2 | 0.00 | 0.00 | 0.00 | 65 | 1008.8 |
| 20260503205023 | 48 | 49 | 3.5 | 5.2 | 0.00 | 0.00 | 0.00 | 62 | 1008.7 |
| 20260503204543 | 48 | 55 | 2.6 | 5.2 | 0.00 | 0.00 | 0.00 | 62 | 1008.8 |
| 20260503204022 | 48 | 47 | 3.5 | 5.2 | 0.00 | 0.00 | 0.00 | 63 | 1008.7 |
| 20260503203530 | 48 | 59 | 2.6 | 7.0 | 0.00 | 0.00 | 0.00 | 64 | 1008.7 |
| 20260503203044 | 48 | 58 | 3.5 | 7.0 | 0.00 | 0.00 | 0.00 | 63 | 1009.0 |
| 20260503202523 | 48 | 82 | 1.7 | 7.0 | 0.00 | 0.00 | 0.00 | 64 | 1009.1 |
| 20260503202026 | 48 | 75 | 3.5 | 7.0 | 0.00 | 0.00 | 0.00 | 62 | 1009.1 |
| 20260503201542 | 48 | 42 | 3.5 | 5.2 | 0.00 | 0.00 | 0.00 | 59 | 1008.9 |
| 20260503201023 | 49 | 51 | 3.5 | 5.2 | 0.00 | 0.00 | 0.00 | 57 | 1009.1 |
| 20260503200525 | 49 | 47 | 2.6 | 7.0 | 0.00 | 0.00 | 0.00 | 61 | 1009.2 |
| 20260503200042 | 49 | 71 | 2.6 | 7.0 | 0.00 | 0.00 | 0.00 | 59 | 1009.2 |
| 20260503195523 | 48 | 48 | 3.5 | 7.8 | 0.00 | 0.00 | 0.00 | 58 | 1009.2 |
| 20260503195023 | 48 | 43 | 4.3 | 7.8 | 0.00 | 0.00 | 0.00 | 57 | 1009.4 |
| 20260503194541 | 49 | 70 | 4.3 | 7.8 | 0.00 | 0.00 | 0.00 | 56 | 1009.5 |
| 20260503194023 | 50 | 42 | 3.5 | 7.0 | 0.00 | 0.00 | 0.00 | 58 | 1009.6 |
| 20260503193525 | 51 | 60 | 4.3 | 6.1 | 0.00 | 0.00 | 0.00 | 53 | 1009.8 |
| 20260503193041 | 52 | 21 | 2.6 | 7.8 | 0.00 | 0.00 | 0.00 | 57 | 1009.9 |
| 20260503192524 | 52 | 24 | 3.5 | 7.8 | 0.00 | 0.00 | 0.00 | 54 | 1009.9 |
| 20260503192027 | 52 | 5 | 4.3 | 8.7 | 0.00 | 0.00 | 0.00 | 53 | 1010.0 |
| 20260503191535 | 52 | 49 | 2.6 | 8.7 | 0.00 | 0.00 | 0.00 | 57 | 1010.0 |
| 20260503191021 | 52 | 312 | 4.3 | 8.7 | 0.00 | 0.00 | 0.00 | 53 | 1010.2 |
| 20260503190521 | 51 | 339 | 3.5 | 8.7 | 0.00 | 0.00 | 0.00 | 56 | 1010.3 |
| 20260503190041 | 51 | 11 | 3.5 | 8.7 | 0.00 | 0.00 | 0.00 | 53 | 1010.3 |
| 20260503185521 | 51 | 299 | 2.6 | 7.0 | 0.00 | 0.00 | 0.00 | 53 | 1010.3 |
| 20260503185021 | 51 | 28 | 3.5 | 7.0 | 0.00 | 0.00 | 0.00 | 55 | 1010.4 |
| 20260503184600 | 51 | 9 | 1.7 | 7.8 | 0.00 | 0.00 | 0.00 | 55 | 1010.5 |
| 20260503184022 | 51 | 37 | 2.6 | 7.8 | 0.00 | 0.00 | 0.00 | 56 | 1010.5 |
| 20260503183522 | 50 | 32 | 2.6 | 7.0 | 0.00 | 0.00 | 0.00 | 56 | 1010.6 |
| 20260503183044 | 50 | 43 | 2.6 | 7.0 | 0.00 | 0.00 | 0.00 | 62 | 1010.7 |
| 20260503182521 | 49 | 49 | 3.5 | 7.0 | 0.00 | 0.00 | 0.00 | 60 | 1010.6 |
| 20260503182021 | 48 | 61 | 3.5 | 6.1 | 0.00 | 0.00 | 0.00 | 61 | 1010.6 |
| 20260503181541 | 48 | 80 | 2.6 | 6.1 | 0.00 | 0.00 | 0.00 | 63 | 1010.7 |
| 20260503181024 | 48 | 61 | 1.7 | 6.1 | 0.00 | 0.00 | 0.00 | 62 | 1011.0 |
| 20260503180521 | 48 | 57 | 3.5 | 6.1 | 0.00 | 0.00 | 0.00 | 60 | 1011.0 |
| 20260503180040 | 48 | 31 | 3.5 | 7.0 | 0.00 | 0.00 | 0.00 | 60 | 1011.0 |
| 20260503175521 | 48 | 42 | 3.5 | 7.8 | 0.00 | 0.00 | 0.00 | 59 | 1011.0 |
| 20260503175021 | 48 | 46 | 3.5 | 7.8 | 0.00 | 0.00 | 0.00 | 56 | 1011.0 |
| 20260503174535 | 48 | 65 | 3.5 | 7.8 | 0.00 | 0.00 | 0.00 | 56 | 1011.1 |
| 20260503174023 | 48 | 66 | 3.5 | 7.8 | 0.00 | 0.00 | 0.00 | 56 | 1010.9 |
| 20260503173521 | 48 | 63 | 2.6 | 7.8 | 0.00 | 0.00 | 0.00 | 57 | 1011.1 |
| 20260503173044 | 48 | 60 | 5.2 | 8.7 | 0.00 | 0.00 | 0.00 | 54 | 1011.1 |
| 20260503172520 | 48 | 79 | 4.3 | 8.7 | 0.00 | 0.00 | 0.00 | 56 | 1011.2 |
| 20260503172021 | 48 | 80 | 4.3 | 8.7 | 0.00 | 0.00 | 0.00 | 52 | 1011.2 |
| 20260503171603 | 48 | 13 | 4.3 | 8.7 | 0.00 | 0.00 | 0.00 | 55 | 1011.2 |
| 20260503171021 | 48 | 48 | 6.1 | 9.6 | 0.00 | 0.00 | 0.00 | 52 | 1011.1 |
| 20260503170521 | 48 | 41 | 5.2 | 9.6 | 0.00 | 0.00 | 0.00 | 55 | 1011.0 |
| 20260503150523 | 49 | 5 | 4.3 | 8.7 | 0.00 | 0.00 | 0.00 | 51 | 1012.6 |
| 20260503131139 | 45 | 292 | 2.6 | 7.8 | 0.00 | 0.00 | 0.00 | 55 | 1013.3 |
| 20260503130522 | 44 | 284 | 1.7 | 8.7 | 0.00 | 0.00 | 0.00 | 56 | 1013.5 |
| 20260503110523 | 36 | 267 | 0.9 | 5.2 | 0.00 | 0.00 | 0.00 | 83 | 1013.2 |
| 20260503081539 | 38 | 273 | 3.5 | 6.1 | 0.00 | 0.00 | 0.00 | 78 | 1013.1 |
| 20260503081026 | 38 | 252 | 2.6 | 6.1 | 0.00 | 0.00 | 0.00 | 78 | 1013.1 |
| 20260503080523 | 38 | 252 | 1.7 | 5.2 | 0.00 | 0.00 | 0.00 | 78 | 1013.2 |
| 20260503072525 | 39 | 259 | 0.9 | 5.2 | 0.00 | 0.00 | 0.00 | 76 | 1012.6 |
| 20260503072024 | 40 | 258 | 1.7 | 5.2 | 0.00 | 0.00 | 0.00 | 76 | 1012.7 |
| 20260503071600 | 40 | 257 | 1.7 | 6.1 | 0.00 | 0.00 | 0.00 | 75 | 1012.7 |
| 20260503071022 | 40 | 259 | 2.6 | 6.1 | 0.00 | 0.00 | 0.00 | 75 | 1012.7 |
| 20260503070523 | 40 | 273 | 2.6 | 6.1 | 0.00 | 0.00 | 0.00 | 75 | 1012.7 |
| 20260503055022 | 40 | 247 | 1.7 | 3.5 | 0.00 | 0.01 | 0.00 | 76 | 1012.8 |
| 20260503054555 | 40 | 267 | 0.9 | 2.6 | 0.00 | 0.01 | 0.00 | 76 | 1012.8 |